Povardarje — YT2188 — position and weather

sailwx.info

Track history (hours):
 
Tides and Currents Weather Stations Pressure Air Temp Water Temp Dewpoint Dewpoint Depression Visibility Wind Speed Wind Dir Waves Ship Positions

Povardarje

Last reported at 2018-Mar-14 08:39 UTC. Time now 2018-Jun-24 01:12 UTC.
Position N 45°17' E 019°49'.
Warning: this ship's position is months out of date.

Length 70 m; draft 0.9 m.

Type: Cargo ship. MMSI: 279202188.

Date/timePositionNaut miles runAvg speedWind from/ knotsBaromVisibWave heightAir tempDewpointWater temp
2018-Mar-14 08:39N 45°17' E 019°49'0 0.0
2018-Mar-14 08:30N 45°17' E 019°49'1 2.2
2018-Mar-14 08:00N 45°17' E 019°50'1 2.9
2018-Mar-14 07:31N 45°16' E 019°52'1 1.7
2018-Mar-14 07:01N 45°16' E 019°53'1 2.2
2018-Mar-14 06:31N 45°15' E 019°55'1 2.4
2018-Mar-14 06:01N 45°14' E 019°55'1 2.2
2018-Mar-14 05:30N 45°13' E 019°56'1 2.2
2018-Mar-14 05:00N 45°12' E 019°57'1 2.2
2018-Mar-14 04:30N 45°11' E 019°58'1 2.1
2018-Mar-14 04:00N 45°11' E 019°60'7 2.2
2018-Mar-14 00:37N 45°11' E 020°10'0 2.5
2018-Mar-14 00:30N 45°11' E 020°10'1 2.2
2018-Mar-14 00:00N 45°11' E 020°12'1 2.2
2018-Mar-13 23:30N 45°10' E 020°13'1 2.3
2018-Mar-13 23:01N 45°10' E 020°15'1 2.5
2018-Mar-13 22:28N 45°09' E 020°16'1 2.3
2018-Mar-13 22:00N 45°08' E 020°17'1 2.1
2018-Mar-13 21:30N 45°07' E 020°17'1 2.2
2018-Mar-13 21:01N 45°06' E 020°18'2 1.8
2018-Mar-13 19:42N 45°04' E 020°20'0 2.2
2018-Mar-13 19:30N 45°04' E 020°21'1 2.1
2018-Mar-13 19:00N 45°03' E 020°21'1 2.4
2018-Mar-13 18:30N 45°02' E 020°22'1 2.2
2018-Mar-13 18:00N 45°00' E 020°21'1 2.0
2018-Mar-13 17:30N 45°00' E 020°20'1 2.4
2018-Mar-13 17:00N 44°60' E 020°18'1 2.3
2018-Mar-13 16:30N 44°59' E 020°18'1 2.4
2018-Mar-13 15:59N 44°58' E 020°18'1 2.4
2018-Mar-13 15:30N 44°56' E 020°18'1 2.3
2018-Mar-13 15:00N 44°56' E 020°19'1 2.3
2018-Mar-13 14:30N 44°55' E 020°20'1 2.2
2018-Mar-13 14:00N 44°54' E 020°21'1 2.2
2018-Mar-13 13:30N 44°53' E 020°22'1 2.2
2018-Mar-13 13:01N 44°52' E 020°23'1 2.3
2018-Mar-13 12:30N 44°51' E 020°24'1 2.5
2018-Mar-13 12:00N 44°51' E 020°26'1 2.4
2018-Mar-13 11:31N 44°50' E 020°27'1 1.9
2018-Mar-13 11:00N 44°50' E 020°29'1 1.9
2018-Mar-13 10:30N 44°50' E 020°30'1 1.7
2018-Mar-13 10:00N 44°49' E 020°31'0 0.0
2018-Mar-13 09:30N 44°49' E 020°31'1 1.1
2018-Mar-13 08:59N 44°50' E 020°32'1 2.2
2018-Mar-13 08:30N 44°50' E 020°33'1 2.0
2018-Mar-13 08:00N 44°51' E 020°34'1 2.1
2018-Mar-13 07:30N 44°51' E 020°36'1 2.0
2018-Mar-13 07:01N 44°51' E 020°37'1 2.1
2018-Mar-13 06:31N 44°51' E 020°38'1 1.8
2018-Mar-13 06:01N 44°50' E 020°39'1 2.2
2018-Mar-13 05:30N 44°49' E 020°38'1 2.5
2018-Mar-13 05:01N 44°47' E 020°38'1 2.1
2018-Mar-13 04:31N 44°46' E 020°38'0 0.1
2018-Mar-13 04:01N 44°46' E 020°38'0 0.0
2018-Mar-13 03:31N 44°46' E 020°38'0 0.0
2018-Mar-13 03:01N 44°46' E 020°38'0 0.0
2018-Mar-13 02:31N 44°46' E 020°38'0 0.0
2018-Mar-13 02:01N 44°46' E 020°38'0 0.0
2018-Mar-13 01:31N 44°46' E 020°38'0 0.0
2018-Mar-13 01:01N 44°46' E 020°38'0 0.0
2018-Mar-13 00:31N 44°46' E 020°38'0 0.0
2018-Mar-13 00:01N 44°46' E 020°38'0 0.0
2018-Mar-12 23:30N 44°46' E 020°38'1 1.5
2018-Mar-12 22:40N 44°45' E 020°38'0 2.3
2018-Mar-12 22:30N 44°45' E 020°39'6 2.3
2018-Mar-12 19:54N 44°40' E 020°44'1 2.5
2018-Mar-12 19:30N 44°40' E 020°46'1 2.3
2018-Mar-12 19:00N 44°40' E 020°47'1 2.0
2018-Mar-12 18:30N 44°40' E 020°49'1 2.3
2018-Mar-12 18:00N 44°40' E 020°50'1 2.6
2018-Mar-12 17:30N 44°40' E 020°52'1 2.3
2018-Mar-12 17:00N 44°40' E 020°54'1 2.0
2018-Mar-12 16:30N 44°40' E 020°55'1 2.3
2018-Mar-12 16:00N 44°41' E 020°56'1 2.1
2018-Mar-12 15:31N 44°42' E 020°57'1 2.0
2018-Mar-12 15:01N 44°43' E 020°58'1 2.5
2018-Mar-12 14:30N 44°43' E 020°60'1 2.3
2018-Mar-12 14:00N 44°43' E 021°01'1 2.2
2018-Mar-12 13:30N 44°43' E 021°03'1 2.1
2018-Mar-12 13:00N 44°43' E 021°04'1 1.8
2018-Mar-12 12:31N 44°44' E 021°05'1 1.6
2018-Mar-12 12:00N 44°44' E 021°06'1 1.9
2018-Mar-12 11:30N 44°44' E 021°08'1 2.0
2018-Mar-12 11:00N 44°44' E 021°09'0 0.4
2018-Mar-12 10:30N 44°44' E 021°09'0 0.0
2018-Mar-12 10:00N 44°44' E 021°09'0 0.0
2018-Mar-12 09:30N 44°44' E 021°09'0 0.0
2018-Mar-12 09:00N 44°44' E 021°09'0 0.0
2018-Mar-12 08:30N 44°44' E 021°09'0 0.0
2018-Mar-12 08:01N 44°44' E 021°09'0 0.0
2018-Mar-12 07:31N 44°44' E 021°09'0 0.0
2018-Mar-12 07:00N 44°44' E 021°09'0 0.0
2018-Mar-11 21:51N 44°44' E 021°09'0 0.0
2018-Mar-11 21:30N 44°44' E 021°09'0 0.0
2018-Mar-11 20:56N 44°44' E 021°09'0 0.0
2018-Mar-11 20:30N 44°44' E 021°09'0 0.0
2018-Mar-11 19:58N 44°44' E 021°09'0 0.0
2018-Mar-11 19:31N 44°44' E 021°09'0 0.0
2018-Mar-11 18:11N 44°44' E 021°09'0 0.0
2018-Mar-11 18:01N 44°44' E 021°09'0 0.0
2018-Mar-11 17:30N 44°44' E 021°09'0 0.0
2018-Mar-11 17:01N 44°44' E 021°09'0 0.0
2018-Mar-11 16:30N 44°44' E 021°09'0 0.0
2018-Mar-11 16:00N 44°44' E 021°09'0 0.2
2018-Mar-11 15:30N 44°44' E 021°09'1 1.6
2018-Mar-11 14:58N 44°45' E 021°10'0 0.9
2018-Mar-11 14:31N 44°45' E 021°10'0 0.0
2018-Mar-11 14:00N 44°45' E 021°10'0 0.0
2018-Mar-11 13:30N 44°45' E 021°10'0 0.0
2018-Mar-11 13:00N 44°45' E 021°10'0 0.0
2018-Mar-11 12:30N 44°45' E 021°10'0 0.0
2018-Mar-11 12:00N 44°45' E 021°10'0 0.0
2018-Mar-11 11:30N 44°45' E 021°10'0 0.0
2018-Mar-11 11:00N 44°45' E 021°10'0 0.0
2018-Mar-11 00:46N 44°46' E 021°10'0 0.0
2018-Mar-11 00:31N 44°46' E 021°10'0 0.0
2018-Mar-11 00:01N 44°46' E 021°10'0 0.0
2018-Mar-10 23:31N 44°46' E 021°10'0 0.0
2018-Mar-10 23:01N 44°46' E 021°10'0 0.0
2018-Mar-10 22:31N 44°46' E 021°10'0 0.0
2018-Mar-10 22:00N 44°46' E 021°10'0 0.0
2018-Mar-10 21:30N 44°46' E 021°10'7 0.5
2018-Mar-10 06:43N 44°43' E 021°01'1 5.1
2018-Mar-10 06:31N 44°43' E 020°60'6 5.2
2018-Mar-10 05:17N 44°40' E 020°52'1 0.5
2018-Mar-10 02:31N 44°40' E 020°50'0 0.0
2018-Mar-10 02:29N 44°40' E 020°50'0 0.0
2018-Mar-10 01:58N 44°40' E 020°50'0 0.0
2018-Mar-10 01:30N 44°40' E 020°50'0 0.0
2018-Mar-10 01:00N 44°40' E 020°50'0 0.0
2018-Mar-10 00:30N 44°40' E 020°50'0 0.0
2018-Mar-10 00:00N 44°40' E 020°50'0 0.0
2018-Mar-09 23:30N 44°40' E 020°50'0 0.0
2018-Mar-09 23:00N 44°40' E 020°50'0 0.0
2018-Mar-09 22:30N 44°40' E 020°50'0 0.0
2018-Mar-09 22:00N 44°40' E 020°50'0 0.0
2018-Mar-09 21:30N 44°40' E 020°50'0 0.0
2018-Mar-09 21:00N 44°40' E 020°50'0 0.0
2018-Mar-09 20:31N 44°40' E 020°50'0 0.0
2018-Mar-09 20:00N 44°40' E 020°50'0 0.0
2018-Mar-09 19:31N 44°40' E 020°50'0 0.0
2018-Mar-09 19:01N 44°40' E 020°50'0 0.0
2018-Mar-09 18:30N 44°40' E 020°50'0 0.0
2018-Mar-09 18:00N 44°40' E 020°50'0 0.0
2018-Mar-09 17:31N 44°40' E 020°50'1 1.5
2018-Mar-09 17:01N 44°39' E 020°49'2 4.6
2018-Mar-09 16:30N 44°40' E 020°46'3 5.2
2018-Mar-09 16:01N 44°41' E 020°43'3 5.2
2018-Mar-09 15:30N 44°43' E 020°41'3 5.3
2018-Mar-09 15:01N 44°45' E 020°38'2 4.9
2018-Mar-09 14:31N 44°48' E 020°38'3 5.1
2018-Mar-09 14:00N 44°50' E 020°39'2 4.9
2018-Mar-09 13:30N 44°51' E 020°36'3 5.4
2018-Mar-09 13:00N 44°50' E 020°32'3 5.4
2018-Mar-09 12:30N 44°50' E 020°29'3 5.2
2018-Mar-09 12:00N 44°51' E 020°25'3 5.4
2018-Mar-09 11:30N 44°52' E 020°22'2 5.0
2018-Mar-09 11:00N 44°54' E 020°20'3 5.1
2018-Mar-09 10:30N 44°56' E 020°18'3 5.1
2018-Mar-09 10:01N 44°59' E 020°18'2 4.9
2018-Mar-09 09:31N 45°00' E 020°21'2 4.4
2018-Mar-09 09:00N 45°02' E 020°22'3 5.0
2018-Mar-09 08:30N 45°04' E 020°20'3 5.2
2018-Mar-09 08:00N 45°06' E 020°18'3 5.0
2018-Mar-09 07:28N 45°09' E 020°16'2 4.7
2018-Mar-09 07:00N 45°10' E 020°13'2 4.7
2018-Mar-09 06:31N 45°11' E 020°10'3 5.6
2018-Mar-09 06:01N 45°10' E 020°06'3 5.7
2018-Mar-09 05:31N 45°10' E 020°02'3 5.1
2018-Mar-09 05:00N 45°11' E 019°59'1 2.3
2018-Mar-09 04:31N 45°12' E 019°58'0 0.0
2018-Mar-09 04:01N 45°12' E 019°58'0 0.0
2018-Mar-09 03:31N 45°12' E 019°58'0 0.0
2018-Mar-09 03:00N 45°12' E 019°58'0 0.0
2018-Mar-09 02:31N 45°12' E 019°58'0 0.0
2018-Mar-09 02:01N 45°12' E 019°58'0 0.0
2018-Mar-09 01:31N 45°12' E 019°58'0 0.0
2018-Mar-09 01:00N 45°12' E 019°58'0 0.0
2018-Mar-09 00:31N 45°12' E 019°58'0 0.0
2018-Mar-09 00:01N 45°12' E 019°58'0 0.0
2018-Mar-08 23:31N 45°12' E 019°58'0 0.0
2018-Mar-08 23:01N 45°12' E 019°58'0 0.0
2018-Mar-08 22:31N 45°12' E 019°58'0 0.0
2018-Mar-08 22:01N 45°12' E 019°58'0 0.0
2018-Mar-08 21:31N 45°12' E 019°58'0 0.0
2018-Mar-08 21:01N 45°12' E 019°58'0 0.0
2018-Mar-08 20:31N 45°12' E 019°58'  
Track history (hours):
 
Tides and Currents Weather Stations Pressure Air Temp Water Temp Dewpoint Dewpoint Depression Visibility Wind Speed Wind Dir Waves Ship Positions

Povardarje

Last reported at 2018-Mar-14 08:39 UTC. Time now 2018-Jun-24 01:12 UTC.
Position N 45°17' E 019°49'.
Warning: this ship's position is months out of date.

Length 70 m; draft 0.9 m.

Type: Cargo ship. MMSI: 279202188.

Date/timePositionNaut miles runAvg speedWind from/ knotsBaromVisibWave heightAir tempDewpointWater temp
2018-Mar-14 08:39N 45°17' E 019°49'0 0.0
2018-Mar-14 08:30N 45°17' E 019°49'1 2.2
2018-Mar-14 08:00N 45°17' E 019°50'1 2.9
2018-Mar-14 07:31N 45°16' E 019°52'1 1.7
2018-Mar-14 07:01N 45°16' E 019°53'1 2.2
2018-Mar-14 06:31N 45°15' E 019°55'1 2.4
2018-Mar-14 06:01N 45°14' E 019°55'1 2.2
2018-Mar-14 05:30N 45°13' E 019°56'1 2.2
2018-Mar-14 05:00N 45°12' E 019°57'1 2.2
2018-Mar-14 04:30N 45°11' E 019°58'1 2.1
2018-Mar-14 04:00N 45°11' E 019°60'7 2.2
2018-Mar-14 00:37N 45°11' E 020°10'0 2.5
2018-Mar-14 00:30N 45°11' E 020°10'1 2.2
2018-Mar-14 00:00N 45°11' E 020°12'1 2.2
2018-Mar-13 23:30N 45°10' E 020°13'1 2.3
2018-Mar-13 23:01N 45°10' E 020°15'1 2.5
2018-Mar-13 22:28N 45°09' E 020°16'1 2.3
2018-Mar-13 22:00N 45°08' E 020°17'1 2.1
2018-Mar-13 21:30N 45°07' E 020°17'1 2.2
2018-Mar-13 21:01N 45°06' E 020°18'2 1.8
2018-Mar-13 19:42N 45°04' E 020°20'0 2.2
2018-Mar-13 19:30N 45°04' E 020°21'1 2.1
2018-Mar-13 19:00N 45°03' E 020°21'1 2.4
2018-Mar-13 18:30N 45°02' E 020°22'1 2.2
2018-Mar-13 18:00N 45°00' E 020°21'1 2.0
2018-Mar-13 17:30N 45°00' E 020°20'1 2.4
2018-Mar-13 17:00N 44°60' E 020°18'1 2.3
2018-Mar-13 16:30N 44°59' E 020°18'1 2.4
2018-Mar-13 15:59N 44°58' E 020°18'1 2.4
2018-Mar-13 15:30N 44°56' E 020°18'1 2.3
2018-Mar-13 15:00N 44°56' E 020°19'1 2.3
2018-Mar-13 14:30N 44°55' E 020°20'1 2.2
2018-Mar-13 14:00N 44°54' E 020°21'1 2.2
2018-Mar-13 13:30N 44°53' E 020°22'1 2.2
2018-Mar-13 13:01N 44°52' E 020°23'1 2.3
2018-Mar-13 12:30N 44°51' E 020°24'1 2.5
2018-Mar-13 12:00N 44°51' E 020°26'1 2.4
2018-Mar-13 11:31N 44°50' E 020°27'1 1.9
2018-Mar-13 11:00N 44°50' E 020°29'1 1.9
2018-Mar-13 10:30N 44°50' E 020°30'1 1.7
2018-Mar-13 10:00N 44°49' E 020°31'0 0.0
2018-Mar-13 09:30N 44°49' E 020°31'1 1.1
2018-Mar-13 08:59N 44°50' E 020°32'1 2.2
2018-Mar-13 08:30N 44°50' E 020°33'1 2.0
2018-Mar-13 08:00N 44°51' E 020°34'1 2.1
2018-Mar-13 07:30N 44°51' E 020°36'1 2.0
2018-Mar-13 07:01N 44°51' E 020°37'1 2.1
2018-Mar-13 06:31N 44°51' E 020°38'1 1.8
2018-Mar-13 06:01N 44°50' E 020°39'1 2.2
2018-Mar-13 05:30N 44°49' E 020°38'1 2.5
2018-Mar-13 05:01N 44°47' E 020°38'1 2.1
2018-Mar-13 04:31N 44°46' E 020°38'0 0.1
2018-Mar-13 04:01N 44°46' E 020°38'0 0.0
2018-Mar-13 03:31N 44°46' E 020°38'0 0.0
2018-Mar-13 03:01N 44°46' E 020°38'0 0.0
2018-Mar-13 02:31N 44°46' E 020°38'0 0.0
2018-Mar-13 02:01N 44°46' E 020°38'0 0.0
2018-Mar-13 01:31N 44°46' E 020°38'0 0.0
2018-Mar-13 01:01N 44°46' E 020°38'0 0.0
2018-Mar-13 00:31N 44°46' E 020°38'0 0.0
2018-Mar-13 00:01N 44°46' E 020°38'0 0.0
2018-Mar-12 23:30N 44°46' E 020°38'1 1.5
2018-Mar-12 22:40N 44°45' E 020°38'0 2.3
2018-Mar-12 22:30N 44°45' E 020°39'6 2.3
2018-Mar-12 19:54N 44°40' E 020°44'1 2.5
2018-Mar-12 19:30N 44°40' E 020°46'1 2.3
2018-Mar-12 19:00N 44°40' E 020°47'1 2.0
2018-Mar-12 18:30N 44°40' E 020°49'1 2.3
2018-Mar-12 18:00N 44°40' E 020°50'1 2.6
2018-Mar-12 17:30N 44°40' E 020°52'1 2.3
2018-Mar-12 17:00N 44°40' E 020°54'1 2.0
2018-Mar-12 16:30N 44°40' E 020°55'1 2.3
2018-Mar-12 16:00N 44°41' E 020°56'1 2.1
2018-Mar-12 15:31N 44°42' E 020°57'1 2.0
2018-Mar-12 15:01N 44°43' E 020°58'1 2.5
2018-Mar-12 14:30N 44°43' E 020°60'1 2.3
2018-Mar-12 14:00N 44°43' E 021°01'1 2.2
2018-Mar-12 13:30N 44°43' E 021°03'1 2.1
2018-Mar-12 13:00N 44°43' E 021°04'1 1.8
2018-Mar-12 12:31N 44°44' E 021°05'1 1.6
2018-Mar-12 12:00N 44°44' E 021°06'1 1.9
2018-Mar-12 11:30N 44°44' E 021°08'1 2.0
2018-Mar-12 11:00N 44°44' E 021°09'0 0.4
2018-Mar-12 10:30N 44°44' E 021°09'0 0.0
2018-Mar-12 10:00N 44°44' E 021°09'0 0.0
2018-Mar-12 09:30N 44°44' E 021°09'0 0.0
2018-Mar-12 09:00N 44°44' E 021°09'0 0.0
2018-Mar-12 08:30N 44°44' E 021°09'0 0.0
2018-Mar-12 08:01N 44°44' E 021°09'0 0.0
2018-Mar-12 07:31N 44°44' E 021°09'0 0.0
2018-Mar-12 07:00N 44°44' E 021°09'0 0.0
2018-Mar-11 21:51N 44°44' E 021°09'0 0.0
2018-Mar-11 21:30N 44°44' E 021°09'0 0.0
2018-Mar-11 20:56N 44°44' E 021°09'0 0.0
2018-Mar-11 20:30N 44°44' E 021°09'0 0.0
2018-Mar-11 19:58N 44°44' E 021°09'0 0.0
2018-Mar-11 19:31N 44°44' E 021°09'0 0.0
2018-Mar-11 18:11N 44°44' E 021°09'0 0.0
2018-Mar-11 18:01N 44°44' E 021°09'0 0.0
2018-Mar-11 17:30N 44°44' E 021°09'0 0.0
2018-Mar-11 17:01N 44°44' E 021°09'0 0.0
2018-Mar-11 16:30N 44°44' E 021°09'0 0.0
2018-Mar-11 16:00N 44°44' E 021°09'0 0.2
2018-Mar-11 15:30N 44°44' E 021°09'1 1.6
2018-Mar-11 14:58N 44°45' E 021°10'0 0.9
2018-Mar-11 14:31N 44°45' E 021°10'0 0.0
2018-Mar-11 14:00N 44°45' E 021°10'0 0.0
2018-Mar-11 13:30N 44°45' E 021°10'0 0.0
2018-Mar-11 13:00N 44°45' E 021°10'0 0.0
2018-Mar-11 12:30N 44°45' E 021°10'0 0.0
2018-Mar-11 12:00N 44°45' E 021°10'0 0.0
2018-Mar-11 11:30N 44°45' E 021°10'0 0.0
2018-Mar-11 11:00N 44°45' E 021°10'0 0.0
2018-Mar-11 00:46N 44°46' E 021°10'0 0.0
2018-Mar-11 00:31N 44°46' E 021°10'0 0.0
2018-Mar-11 00:01N 44°46' E 021°10'0 0.0
2018-Mar-10 23:31N 44°46' E 021°10'0 0.0
2018-Mar-10 23:01N 44°46' E 021°10'0 0.0
2018-Mar-10 22:31N 44°46' E 021°10'0 0.0
2018-Mar-10 22:00N 44°46' E 021°10'0 0.0
2018-Mar-10 21:30N 44°46' E 021°10'7 0.5
2018-Mar-10 06:43N 44°43' E 021°01'1 5.1
2018-Mar-10 06:31N 44°43' E 020°60'6 5.2
2018-Mar-10 05:17N 44°40' E 020°52'1 0.5
2018-Mar-10 02:31N 44°40' E 020°50'0 0.0
2018-Mar-10 02:29N 44°40' E 020°50'0 0.0
2018-Mar-10 01:58N 44°40' E 020°50'0 0.0
2018-Mar-10 01:30N 44°40' E 020°50'0 0.0
2018-Mar-10 01:00N 44°40' E 020°50'0 0.0
2018-Mar-10 00:30N 44°40' E 020°50'0 0.0
2018-Mar-10 00:00N 44°40' E 020°50'0 0.0
2018-Mar-09 23:30N 44°40' E 020°50'0 0.0
2018-Mar-09 23:00N 44°40' E 020°50'0 0.0
2018-Mar-09 22:30N 44°40' E 020°50'0 0.0
2018-Mar-09 22:00N 44°40' E 020°50'0 0.0
2018-Mar-09 21:30N 44°40' E 020°50'0 0.0
2018-Mar-09 21:00N 44°40' E 020°50'0 0.0
2018-Mar-09 20:31N 44°40' E 020°50'0 0.0
2018-Mar-09 20:00N 44°40' E 020°50'0 0.0
2018-Mar-09 19:31N 44°40' E 020°50'0 0.0
2018-Mar-09 19:01N 44°40' E 020°50'0 0.0
2018-Mar-09 18:30N 44°40' E 020°50'0 0.0
2018-Mar-09 18:00N 44°40' E 020°50'0 0.0
2018-Mar-09 17:31N 44°40' E 020°50'1 1.5
2018-Mar-09 17:01N 44°39' E 020°49'2 4.6
2018-Mar-09 16:30N 44°40' E 020°46'3 5.2
2018-Mar-09 16:01N 44°41' E 020°43'3 5.2
2018-Mar-09 15:30N 44°43' E 020°41'3 5.3
2018-Mar-09 15:01N 44°45' E 020°38'2 4.9
2018-Mar-09 14:31N 44°48' E 020°38'3 5.1
2018-Mar-09 14:00N 44°50' E 020°39'2 4.9
2018-Mar-09 13:30N 44°51' E 020°36'3 5.4
2018-Mar-09 13:00N 44°50' E 020°32'3 5.4
2018-Mar-09 12:30N 44°50' E 020°29'3 5.2
2018-Mar-09 12:00N 44°51' E 020°25'3 5.4
2018-Mar-09 11:30N 44°52' E 020°22'2 5.0
2018-Mar-09 11:00N 44°54' E 020°20'3 5.1
2018-Mar-09 10:30N 44°56' E 020°18'3 5.1
2018-Mar-09 10:01N 44°59' E 020°18'2 4.9
2018-Mar-09 09:31N 45°00' E 020°21'2 4.4
2018-Mar-09 09:00N 45°02' E 020°22'3 5.0
2018-Mar-09 08:30N 45°04' E 020°20'3 5.2
2018-Mar-09 08:00N 45°06' E 020°18'3 5.0
2018-Mar-09 07:28N 45°09' E 020°16'2 4.7
2018-Mar-09 07:00N 45°10' E 020°13'2 4.7
2018-Mar-09 06:31N 45°11' E 020°10'3 5.6
2018-Mar-09 06:01N 45°10' E 020°06'3 5.7
2018-Mar-09 05:31N 45°10' E 020°02'3 5.1
2018-Mar-09 05:00N 45°11' E 019°59'1 2.3
2018-Mar-09 04:31N 45°12' E 019°58'0 0.0
2018-Mar-09 04:01N 45°12' E 019°58'0 0.0
2018-Mar-09 03:31N 45°12' E 019°58'0 0.0
2018-Mar-09 03:00N 45°12' E 019°58'0 0.0
2018-Mar-09 02:31N 45°12' E 019°58'0 0.0
2018-Mar-09 02:01N 45°12' E 019°58'0 0.0
2018-Mar-09 01:31N 45°12' E 019°58'0 0.0
2018-Mar-09 01:00N 45°12' E 019°58'0 0.0
2018-Mar-09 00:31N 45°12' E 019°58'0 0.0
2018-Mar-09 00:01N 45°12' E 019°58'0 0.0
2018-Mar-08 23:31N 45°12' E 019°58'0 0.0
2018-Mar-08 23:01N 45°12' E 019°58'0 0.0
2018-Mar-08 22:31N 45°12' E 019°58'0 0.0
2018-Mar-08 22:01N 45°12' E 019°58'0 0.0
2018-Mar-08 21:31N 45°12' E 019°58'0 0.0
2018-Mar-08 21:01N 45°12' E 019°58'0 0.0
2018-Mar-08 20:31N 45°12' E 019°58'  

Dump ship's entire track history